createdAt,value
2018-05-27T00:00:21.694Z,13.70
2018-05-27T00:02:48.107Z,13.67
2018-05-27T00:05:14.522Z,13.67
2018-05-27T00:07:40.906Z,13.69
2018-05-27T00:10:07.366Z,13.70
2018-05-27T00:12:33.738Z,13.76
2018-05-27T00:15:00.085Z,13.77
2018-05-27T00:17:26.488Z,13.78
2018-05-27T00:19:52.829Z,13.76
2018-05-27T00:22:19.216Z,13.81
2018-05-27T00:24:45.578Z,13.99
2018-05-27T00:27:11.993Z,14.03
2018-05-27T00:29:38.366Z,13.99
2018-05-27T00:32:04.712Z,13.91
2018-05-27T00:34:31.124Z,13.85
2018-05-27T00:36:57.498Z,13.80
2018-05-27T00:39:23.856Z,13.80
2018-05-27T00:41:50.209Z,13.75
2018-05-27T00:44:16.549Z,13.73
2018-05-27T00:46:42.969Z,13.74
2018-05-27T00:49:09.301Z,13.73
2018-05-27T00:51:35.645Z,13.76
2018-05-27T00:54:02.041Z,13.78
2018-05-27T00:56:28.437Z,13.82
2018-05-27T00:58:54.823Z,13.90
2018-05-27T01:01:21.166Z,14.03
2018-05-27T01:03:47.551Z,14.09
2018-05-27T01:06:14.066Z,14.14
2018-05-27T01:08:40.456Z,14.20
2018-05-27T01:11:06.926Z,14.39
2018-05-27T01:13:33.344Z,14.31
2018-05-27T01:15:59.770Z,14.29
2018-05-27T01:18:26.168Z,14.37
2018-05-27T01:20:52.544Z,14.56
2018-05-27T01:23:18.969Z,14.54
2018-05-27T01:25:45.345Z,14.58
2018-05-27T01:28:12.386Z,14.61
2018-05-27T01:30:38.778Z,14.72
2018-05-27T01:33:05.149Z,14.57
2018-05-27T01:35:31.564Z,14.40
2018-05-27T01:37:57.981Z,14.31
2018-05-27T01:40:24.332Z,14.28
2018-05-27T01:42:50.699Z,14.29
2018-05-27T01:45:17.043Z,14.23
2018-05-27T01:47:43.441Z,14.20
2018-05-27T01:50:09.863Z,14.26
2018-05-27T01:52:36.249Z,14.23
2018-05-27T01:55:02.610Z,14.20
2018-05-27T01:57:28.997Z,14.16
2018-05-27T01:59:55.353Z,14.14
2018-05-27T02:02:21.746Z,14.08
2018-05-27T02:04:48.073Z,14.03
2018-05-27T02:07:14.437Z,13.97
2018-05-27T02:09:40.805Z,13.87
2018-05-27T02:12:07.199Z,13.77
2018-05-27T02:14:33.529Z,13.74
2018-05-27T02:16:59.968Z,13.69
2018-05-27T02:19:26.306Z,13.65
2018-05-27T02:21:52.696Z,13.65
2018-05-27T02:24:19.060Z,13.64
2018-05-27T02:26:45.482Z,13.62
2018-05-27T02:29:11.937Z,13.61
2018-05-27T02:31:38.541Z,13.63
2018-05-27T02:34:04.948Z,13.67
2018-05-27T02:36:31.346Z,13.64
2018-05-27T02:38:57.748Z,13.61
2018-05-27T02:41:24.112Z,13.56
2018-05-27T02:43:50.442Z,13.48
2018-05-27T02:46:16.825Z,13.47
2018-05-27T02:48:43.226Z,13.45
2018-05-27T02:51:09.624Z,13.47
2018-05-27T02:53:35.941Z,13.45
2018-05-27T02:56:02.334Z,13.40
2018-05-27T02:58:28.660Z,13.43
2018-05-27T03:00:55.026Z,13.43
2018-05-27T03:03:21.358Z,13.40
2018-05-27T03:05:47.697Z,13.40
2018-05-27T03:08:14.067Z,13.44
2018-05-27T03:10:40.470Z,13.48
2018-05-27T03:13:06.798Z,13.50
2018-05-27T03:15:33.151Z,13.58
2018-05-27T03:17:59.573Z,13.65
2018-05-27T03:20:25.916Z,13.72
2018-05-27T03:22:52.288Z,13.78
2018-05-27T03:25:18.612Z,13.86
2018-05-27T03:27:45.029Z,13.95
2018-05-27T03:30:11.445Z,14.05
2018-05-27T03:32:37.808Z,14.04
2018-05-27T03:35:04.176Z,14.02
2018-05-27T03:37:30.621Z,14.03
2018-05-27T03:39:56.998Z,14.11
2018-05-27T03:42:23.351Z,14.22
2018-05-27T03:44:49.714Z,14.29
2018-05-27T03:47:16.106Z,14.40
2018-05-27T03:49:42.494Z,14.55
2018-05-27T03:52:08.831Z,14.69
2018-05-27T03:54:35.256Z,14.80
2018-05-27T03:57:01.641Z,14.95
2018-05-27T03:59:28.035Z,15.19
2018-05-27T04:01:54.425Z,15.49
2018-05-27T04:04:33.013Z,15.79
2018-05-27T04:07:12.579Z,16.07
2018-05-27T04:09:39.082Z,16.29
2018-05-27T04:12:05.477Z,16.31
2018-05-27T04:14:31.869Z,16.28
2018-05-27T04:16:58.301Z,16.22
2018-05-27T04:19:24.773Z,16.13
2018-05-27T04:21:51.177Z,16.04
2018-05-27T04:24:17.597Z,15.93
2018-05-27T04:26:44.098Z,15.95
2018-05-27T04:29:10.631Z,16.06
2018-05-27T04:31:37.049Z,16.13
2018-05-27T04:34:03.482Z,16.34
2018-05-27T04:36:30.052Z,16.52
2018-05-27T04:38:56.555Z,16.71
2018-05-27T04:41:23.030Z,17.22
2018-05-27T04:43:49.495Z,19.73
2018-05-27T04:46:16.112Z,21.26
2018-05-27T04:48:42.649Z,21.06
2018-05-27T04:51:09.080Z,21.29
2018-05-27T04:53:35.963Z,21.54
2018-05-27T04:56:03.551Z,22.54
2018-05-27T04:58:30.910Z,22.63
2018-05-27T05:00:58.057Z,22.65
2018-05-27T05:03:24.865Z,23.48
2018-05-27T05:05:51.473Z,23.24
2018-05-27T05:08:18.036Z,23.31
2018-05-27T05:10:44.783Z,22.66
2018-05-27T05:13:11.348Z,22.77
2018-05-27T05:15:38.008Z,22.51
2018-05-27T05:18:04.551Z,22.48
2018-05-27T05:20:31.131Z,23.44
2018-05-27T05:22:57.589Z,23.53
2018-05-27T05:25:24.019Z,23.86
2018-05-27T05:27:50.525Z,23.56
2018-05-27T05:30:16.970Z,22.93
2018-05-27T05:32:43.502Z,21.73
2018-05-27T05:35:10.024Z,22.34
2018-05-27T05:37:36.599Z,23.34
2018-05-27T05:40:03.102Z,23.45
2018-05-27T05:42:29.730Z,23.40
2018-05-27T05:44:57.416Z,23.96
2018-05-27T05:47:25.065Z,24.16
2018-05-27T05:49:51.791Z,23.77
2018-05-27T05:52:19.579Z,24.50
2018-05-27T05:54:46.779Z,24.90
2018-05-27T05:57:14.872Z,25.36
2018-05-27T05:59:41.994Z,25.95
2018-05-27T06:02:08.981Z,25.51
2018-05-27T06:04:35.539Z,25.07
2018-05-27T06:07:02.462Z,24.62
2018-05-27T06:09:29.121Z,24.56
2018-05-27T06:11:55.974Z,24.46
2018-05-27T06:14:22.909Z,24.84
2018-05-27T06:16:51.239Z,24.70
2018-05-27T06:19:18.382Z,24.65
2018-05-27T06:21:45.142Z,23.80
2018-05-27T06:24:12.131Z,24.58
2018-05-27T06:26:39.086Z,24.40
2018-05-27T06:29:05.635Z,24.40
2018-05-27T06:31:32.110Z,24.43
2018-05-27T06:33:58.891Z,24.33
2018-05-27T06:36:25.507Z,24.14
2018-05-27T06:38:52.266Z,24.33
2018-05-27T06:41:19.072Z,24.28
2018-05-27T06:43:45.790Z,24.59
2018-05-27T06:46:12.363Z,24.97
2018-05-27T06:48:39.845Z,25.35
2018-05-27T06:51:06.406Z,25.43
2018-05-27T06:53:32.951Z,25.67
2018-05-27T06:55:59.514Z,25.54
2018-05-27T06:58:26.713Z,25.60
2018-05-27T07:00:53.309Z,25.05
2018-05-27T07:03:20.522Z,25.45
2018-05-27T07:05:47.819Z,25.01
2018-05-27T07:08:14.402Z,24.93
2018-05-27T07:10:42.029Z,25.73
2018-05-27T07:13:08.532Z,25.38
2018-05-27T07:15:34.935Z,25.48
2018-05-27T07:18:01.380Z,25.55
2018-05-27T07:20:27.920Z,25.36
2018-05-27T07:22:54.368Z,25.89
2018-05-27T07:25:20.931Z,25.64
2018-05-27T07:27:47.897Z,25.70
2018-05-27T07:30:14.350Z,26.30
2018-05-27T07:32:40.885Z,25.94
2018-05-27T07:35:08.078Z,26.25
2018-05-27T07:37:34.518Z,26.33
2018-05-27T07:40:01.523Z,25.58
2018-05-27T07:42:28.529Z,24.63
2018-05-27T07:44:55.257Z,24.70
2018-05-27T07:47:21.813Z,24.54
2018-05-27T07:49:48.422Z,25.02
2018-05-27T07:52:15.270Z,25.12
2018-05-27T07:54:42.022Z,25.53
2018-05-27T07:57:08.622Z,26.27
2018-05-27T07:59:35.061Z,26.20
2018-05-27T08:02:01.544Z,26.71
2018-05-27T08:04:28.317Z,25.77
2018-05-27T08:06:54.967Z,25.55
2018-05-27T08:09:21.483Z,25.61
2018-05-27T08:11:47.889Z,25.29
2018-05-27T08:14:14.372Z,24.15
2018-05-27T08:16:41.552Z,24.13
2018-05-27T08:19:08.236Z,25.11
2018-05-27T08:21:35.080Z,25.92
2018-05-27T08:24:01.656Z,26.27
2018-05-27T08:26:28.125Z,25.77
2018-05-27T08:28:54.619Z,24.75
2018-05-27T08:31:21.145Z,24.62
2018-05-27T08:33:47.737Z,24.20
2018-05-27T08:36:14.321Z,23.94
2018-05-27T08:38:40.910Z,24.81
2018-05-27T08:41:07.343Z,24.60
2018-05-27T08:43:33.986Z,24.12
2018-05-27T08:46:00.398Z,23.57
2018-05-27T08:48:26.931Z,23.65
2018-05-27T08:50:53.379Z,23.82
2018-05-27T08:53:19.814Z,24.25
2018-05-27T08:55:46.317Z,24.03
2018-05-27T08:58:12.761Z,23.66
2018-05-27T09:00:39.172Z,23.53
2018-05-27T09:03:05.544Z,24.24
2018-05-27T09:05:31.934Z,24.35
2018-05-27T09:07:58.428Z,24.27
2018-05-27T09:10:24.967Z,23.80
2018-05-27T09:12:51.401Z,23.33
2018-05-27T09:15:17.942Z,23.12
2018-05-27T09:17:44.480Z,22.83
2018-05-27T09:20:11.066Z,23.73
2018-05-27T09:22:37.521Z,24.26
2018-05-27T09:25:04.040Z,24.97
2018-05-27T09:27:31.526Z,25.48
2018-05-27T09:29:58.393Z,24.51
2018-05-27T09:32:25.427Z,24.44
2018-05-27T09:34:52.068Z,23.88
2018-05-27T09:37:19.321Z,23.68
2018-05-27T09:39:45.744Z,23.47
2018-05-27T09:42:12.295Z,23.26
2018-05-27T09:44:38.976Z,23.10
2018-05-27T09:47:05.386Z,23.13
2018-05-27T09:49:32.154Z,23.21
2018-05-27T09:51:59.139Z,23.06
2018-05-27T09:54:25.839Z,22.94
2018-05-27T09:56:52.541Z,22.85
2018-05-27T09:59:19.132Z,22.93
2018-05-27T10:01:45.727Z,24.34
2018-05-27T10:04:12.263Z,23.97
2018-05-27T10:06:38.997Z,23.50
2018-05-27T10:09:06.653Z,24.49
2018-05-27T10:11:33.369Z,24.70
2018-05-27T10:13:59.893Z,24.63
2018-05-27T10:16:26.540Z,24.38
2018-05-27T10:18:53.418Z,24.04
2018-05-27T10:21:20.111Z,24.17
2018-05-27T10:23:46.604Z,25.00
2018-05-27T10:26:13.106Z,24.93
2018-05-27T10:28:39.594Z,24.07
2018-05-27T10:31:06.056Z,23.74
2018-05-27T10:33:32.834Z,23.40
2018-05-27T10:35:59.537Z,24.47
2018-05-27T10:38:26.244Z,25.29
2018-05-27T10:40:52.800Z,24.86
2018-05-27T10:43:19.325Z,24.80
2018-05-27T10:45:45.738Z,24.76
2018-05-27T10:48:12.394Z,24.29
2018-05-27T10:50:41.079Z,23.62
2018-05-27T10:53:08.658Z,23.11
2018-05-27T10:55:36.186Z,23.12
2018-05-27T10:58:03.214Z,23.47
2018-05-27T11:00:30.766Z,23.95
2018-05-27T11:02:58.030Z,24.37
2018-05-27T11:05:26.026Z,25.42
2018-05-27T11:07:55.799Z,25.44
2018-05-27T11:10:23.168Z,25.14
2018-05-27T11:12:50.349Z,24.33
2018-05-27T11:15:17.568Z,23.64
2018-05-27T11:17:44.806Z,24.24
2018-05-27T11:20:12.238Z,24.76
2018-05-27T11:22:39.730Z,24.31
2018-05-27T11:25:06.499Z,24.63
2018-05-27T11:27:33.709Z,24.65
2018-05-27T11:30:00.595Z,24.87
2018-05-27T11:32:27.790Z,24.93
2018-05-27T11:34:55.285Z,24.69
2018-05-27T11:37:22.471Z,24.29
2018-05-27T11:39:50.274Z,23.82
2018-05-27T11:42:17.076Z,23.33
2018-05-27T11:44:44.807Z,23.27
2018-05-27T11:47:11.664Z,24.32
2018-05-27T11:49:39.116Z,25.30
2018-05-27T11:52:06.723Z,25.83
2018-05-27T11:54:34.526Z,25.96
2018-05-27T11:57:01.900Z,25.47
2018-05-27T11:59:29.645Z,24.41
2018-05-27T12:01:57.775Z,23.77
2018-05-27T12:04:26.021Z,23.38
2018-05-27T12:06:54.080Z,23.17
2018-05-27T12:09:22.108Z,23.09
2018-05-27T12:11:49.968Z,22.97
2018-05-27T12:14:17.675Z,23.35
2018-05-27T12:16:45.554Z,23.71
2018-05-27T12:19:12.718Z,24.32
2018-05-27T12:21:39.706Z,24.35
2018-05-27T12:24:07.179Z,24.44
2018-05-27T12:26:34.146Z,24.66
2018-05-27T12:29:00.724Z,24.55
2018-05-27T12:31:27.248Z,24.59
2018-05-27T12:33:54.162Z,24.22
2018-05-27T12:36:20.897Z,24.13
2018-05-27T12:38:47.680Z,24.14
2018-05-27T12:41:14.312Z,24.08
2018-05-27T12:43:41.588Z,24.11
2018-05-27T12:46:08.193Z,24.21
2018-05-27T12:48:34.715Z,24.02
2018-05-27T12:51:02.327Z,23.86
2018-05-27T12:53:29.110Z,23.82
2018-05-27T12:55:56.576Z,23.90
2018-05-27T12:58:23.268Z,23.93
2018-05-27T13:00:50.147Z,24.04
2018-05-27T13:03:16.807Z,24.02
2018-05-27T13:05:43.667Z,24.09
2018-05-27T13:08:10.876Z,23.91
2018-05-27T13:10:38.345Z,23.98
2018-05-27T13:13:05.267Z,24.18
2018-05-27T13:15:32.065Z,24.30
2018-05-27T13:17:58.853Z,24.65
2018-05-27T13:20:26.739Z,24.67
2018-05-27T13:22:53.894Z,24.30
2018-05-27T13:25:20.901Z,24.35
2018-05-27T13:27:47.749Z,24.09
2018-05-27T13:30:14.765Z,23.85
2018-05-27T13:32:42.461Z,23.92
2018-05-27T13:35:09.385Z,23.97
2018-05-27T13:37:36.272Z,24.05
2018-05-27T13:40:03.181Z,24.29
2018-05-27T13:42:30.161Z,23.94
2018-05-27T13:44:58.988Z,23.92
2018-05-27T13:47:27.462Z,24.07
2018-05-27T13:49:54.823Z,24.28
2018-05-27T13:52:21.579Z,24.16
2018-05-27T13:54:48.609Z,24.26
2018-05-27T13:57:15.245Z,24.20
2018-05-27T13:59:41.918Z,24.15
2018-05-27T14:02:08.383Z,24.19
2018-05-27T14:04:35.301Z,24.18
2018-05-27T14:07:01.815Z,24.09
2018-05-27T14:09:28.392Z,24.19
2018-05-27T14:11:54.917Z,24.46
2018-05-27T14:14:21.444Z,24.47
2018-05-27T14:16:48.038Z,23.93
2018-05-27T14:19:14.584Z,23.75
2018-05-27T14:21:41.216Z,23.66
2018-05-27T14:24:07.707Z,23.40
2018-05-27T14:26:34.331Z,23.38
2018-05-27T14:29:00.908Z,23.27
2018-05-27T14:31:27.639Z,23.23
2018-05-27T14:33:54.116Z,23.12
2018-05-27T14:36:21.591Z,23.03
2018-05-27T14:38:48.137Z,23.48
2018-05-27T14:41:14.766Z,23.66
2018-05-27T14:43:41.239Z,24.01
2018-05-27T14:46:07.751Z,24.14
2018-05-27T14:48:34.326Z,24.18
2018-05-27T14:51:01.253Z,24.24
2018-05-27T14:53:27.886Z,23.98
2018-05-27T14:55:54.899Z,24.05
2018-05-27T14:58:21.843Z,23.95
2018-05-27T15:00:48.465Z,23.86
2018-05-27T15:03:15.272Z,23.74
2018-05-27T15:05:41.833Z,23.74
2018-05-27T15:08:08.331Z,23.52
2018-05-27T15:10:35.057Z,23.46
2018-05-27T15:13:01.860Z,23.37
2018-05-27T15:15:28.567Z,23.51
2018-05-27T15:17:55.248Z,23.42
2018-05-27T15:20:21.965Z,23.36
2018-05-27T15:22:48.516Z,23.38
2018-05-27T15:25:15.074Z,23.38
2018-05-27T15:27:41.539Z,23.16
2018-05-27T15:30:08.015Z,22.83
2018-05-27T15:32:34.493Z,22.82
2018-05-27T15:35:01.095Z,22.50
2018-05-27T15:37:28.094Z,22.33
2018-05-27T15:39:54.754Z,21.94
2018-05-27T15:42:21.191Z,21.84
2018-05-27T15:44:47.659Z,21.61
2018-05-27T15:47:14.125Z,21.65
2018-05-27T15:49:40.548Z,21.68
2018-05-27T15:52:06.972Z,21.79
2018-05-27T15:54:33.980Z,21.68
2018-05-27T15:57:00.533Z,21.58
2018-05-27T15:59:27.071Z,21.64
2018-05-27T16:01:53.499Z,21.55
2018-05-27T16:04:20.016Z,21.38
2018-05-27T16:06:46.476Z,21.34
2018-05-27T16:09:12.902Z,21.29
2018-05-27T16:11:39.359Z,21.42
2018-05-27T16:14:05.814Z,21.37
2018-05-27T16:16:32.338Z,21.32
2018-05-27T16:18:58.810Z,21.32
2018-05-27T16:21:25.356Z,21.30
2018-05-27T16:23:51.857Z,21.22
2018-05-27T16:26:18.403Z,21.24
2018-05-27T16:28:45.088Z,21.27
2018-05-27T16:31:11.528Z,21.16
2018-05-27T16:33:38.021Z,21.10
2018-05-27T16:36:04.588Z,21.04
2018-05-27T16:38:31.064Z,20.97
2018-05-27T16:40:57.931Z,20.59
2018-05-27T16:43:24.480Z,20.58
2018-05-27T16:45:51.290Z,20.41
2018-05-27T16:48:17.795Z,20.39
2018-05-27T16:50:44.238Z,20.57
2018-05-27T16:53:10.714Z,20.51
2018-05-27T16:55:38.244Z,20.84
2018-05-27T16:58:05.878Z,20.91
2018-05-27T17:00:34.145Z,20.96
2018-05-27T17:03:02.176Z,20.85
2018-05-27T17:05:29.283Z,20.87
2018-05-27T17:07:56.552Z,20.88
2018-05-27T17:10:24.171Z,20.70
2018-05-27T17:12:51.811Z,20.40
2018-05-27T17:15:19.771Z,19.99
2018-05-27T17:17:47.858Z,19.94
2018-05-27T17:20:16.306Z,19.98
2018-05-27T17:22:43.201Z,19.90
2018-05-27T17:25:09.759Z,20.12
2018-05-27T17:27:37.724Z,20.16
2018-05-27T17:30:04.246Z,20.04
2018-05-27T17:32:31.005Z,19.83
2018-05-27T17:34:58.287Z,19.72
2018-05-27T17:37:25.028Z,19.65
2018-05-27T17:39:51.915Z,19.47
2018-05-27T17:42:20.554Z,19.21
2018-05-27T17:44:47.260Z,19.00
2018-05-27T17:47:14.692Z,18.85
2018-05-27T17:49:41.823Z,18.86
2018-05-27T17:52:08.953Z,19.31
2018-05-27T17:54:35.974Z,19.70
2018-05-27T17:57:02.869Z,19.43
2018-05-27T17:59:29.834Z,19.57
2018-05-27T18:01:56.343Z,19.23
2018-05-27T18:04:23.132Z,19.14
2018-05-27T18:06:49.727Z,18.98
2018-05-27T18:09:16.234Z,18.79
2018-05-27T18:11:42.796Z,18.60
2018-05-27T18:14:09.455Z,18.59
2018-05-27T18:16:36.145Z,18.58
2018-05-27T18:19:02.801Z,18.51
2018-05-27T18:21:29.818Z,18.28
2018-05-27T18:23:56.905Z,17.90
2018-05-27T18:26:24.507Z,17.72
2018-05-27T18:28:51.491Z,17.52
2018-05-27T18:31:18.585Z,17.68
2018-05-27T18:33:45.231Z,17.47
2018-05-27T18:36:11.913Z,17.17
2018-05-27T18:38:39.511Z,16.97
2018-05-27T18:41:06.138Z,16.72
2018-05-27T18:43:32.720Z,16.52
2018-05-27T18:45:59.349Z,16.43
2018-05-27T18:48:25.923Z,16.47
2018-05-27T18:50:52.444Z,16.30
2018-05-27T18:53:19.018Z,16.27
2018-05-27T18:55:45.969Z,16.12
2018-05-27T18:58:12.476Z,16.02
2018-05-27T19:00:39.014Z,15.85
2018-05-27T19:03:05.608Z,15.74
2018-05-27T19:05:32.245Z,15.62
2018-05-27T19:07:58.768Z,15.59
2018-05-27T19:10:25.483Z,15.50
2018-05-27T19:12:52.528Z,15.40
2018-05-27T19:15:19.229Z,15.33
2018-05-27T19:17:45.866Z,15.32
2018-05-27T19:20:12.352Z,15.46
2018-05-27T19:22:38.858Z,15.27
2018-05-27T19:25:05.412Z,15.19
2018-05-27T19:27:31.994Z,15.13
2018-05-27T19:29:58.905Z,15.08
2018-05-27T19:32:25.850Z,15.06
2018-05-27T19:34:52.807Z,15.03
2018-05-27T19:37:19.549Z,15.00
2018-05-27T19:39:46.593Z,15.00
2018-05-27T19:42:13.255Z,14.99
2018-05-27T19:44:39.812Z,14.99
2018-05-27T19:47:06.523Z,14.98
2018-05-27T19:49:33.086Z,14.96
2018-05-27T19:51:59.771Z,14.93
2018-05-27T19:54:26.428Z,14.90
2018-05-27T19:56:53.932Z,14.87
2018-05-27T19:59:20.885Z,14.76
2018-05-27T20:01:47.683Z,14.65
2018-05-27T20:04:14.422Z,14.57
2018-05-27T20:06:41.220Z,14.57
2018-05-27T20:09:07.671Z,14.50
2018-05-27T20:11:34.543Z,14.43
2018-05-27T20:14:01.057Z,14.39
2018-05-27T20:16:27.543Z,14.40
2018-05-27T20:18:53.970Z,14.38
2018-05-27T20:21:20.492Z,14.37
2018-05-27T20:23:47.076Z,14.34
2018-05-27T20:26:13.605Z,14.33
2018-05-27T20:28:40.220Z,14.35
2018-05-27T20:31:06.770Z,14.35
2018-05-27T20:33:33.280Z,14.45
2018-05-27T20:36:00.913Z,14.52
2018-05-27T20:38:27.493Z,14.48
2018-05-27T20:40:53.940Z,14.43
2018-05-27T20:43:20.456Z,14.43
2018-05-27T20:45:47.275Z,14.45
2018-05-27T20:48:13.817Z,14.47
2018-05-27T20:50:40.285Z,14.48
2018-05-27T20:53:07.190Z,14.44
2018-05-27T20:55:33.826Z,14.37
2018-05-27T20:58:00.309Z,14.34
2018-05-27T21:00:26.826Z,14.29
2018-05-27T21:02:53.687Z,14.33
2018-05-27T21:05:20.143Z,14.30
2018-05-27T21:07:46.789Z,14.25
2018-05-27T21:10:13.203Z,14.25
2018-05-27T21:12:39.743Z,14.17
2018-05-27T21:15:06.367Z,14.22
2018-05-27T21:17:32.783Z,14.22
2018-05-27T21:19:59.140Z,14.18
2018-05-27T21:22:25.636Z,14.12
2018-05-27T21:24:52.216Z,14.09
2018-05-27T21:27:18.845Z,14.09
2018-05-27T21:29:45.404Z,14.05
2018-05-27T21:32:11.924Z,14.13
2018-05-27T21:34:38.431Z,14.09
2018-05-27T21:37:04.891Z,14.08
2018-05-27T21:39:31.363Z,14.03
2018-05-27T21:41:57.884Z,13.99
2018-05-27T21:44:24.317Z,13.95
2018-05-27T21:46:50.757Z,13.87
2018-05-27T21:49:17.185Z,13.85
2018-05-27T21:51:43.592Z,13.82
2018-05-27T21:54:10.011Z,13.81
2018-05-27T21:56:36.388Z,13.78
2018-05-27T21:59:02.761Z,13.83
2018-05-27T22:01:29.157Z,13.78
2018-05-27T22:03:55.560Z,13.72
2018-05-27T22:06:22.122Z,13.68
2018-05-27T22:08:48.586Z,13.74
2018-05-27T22:11:14.969Z,13.79
2018-05-27T22:13:41.330Z,13.77
2018-05-27T22:16:07.758Z,13.74
2018-05-27T22:18:34.093Z,13.80
2018-05-27T22:21:00.468Z,13.80
2018-05-27T22:23:26.921Z,13.90
2018-05-27T22:25:53.271Z,13.85
2018-05-27T22:28:19.725Z,13.78
2018-05-27T22:30:46.162Z,13.85
2018-05-27T22:33:12.575Z,13.84
2018-05-27T22:35:39.143Z,13.74
2018-05-27T22:38:05.590Z,13.68
2018-05-27T22:40:32.193Z,13.67
2018-05-27T22:42:58.809Z,13.76
2018-05-27T22:45:25.191Z,13.68
2018-05-27T22:47:51.674Z,13.72
2018-05-27T22:50:18.155Z,13.69
2018-05-27T22:52:44.580Z,13.70
2018-05-27T22:55:11.197Z,13.65
2018-05-27T22:57:37.696Z,13.57
2018-05-27T23:00:04.182Z,13.54
2018-05-27T23:02:31.804Z,13.56
2018-05-27T23:04:58.387Z,13.50
2018-05-27T23:07:24.795Z,13.45
2018-05-27T23:09:51.329Z,13.40
2018-05-27T23:12:17.677Z,13.36
2018-05-27T23:14:44.015Z,13.35
2018-05-27T23:17:10.380Z,13.32
2018-05-27T23:19:36.911Z,13.33
2018-05-27T23:22:03.369Z,13.38
2018-05-27T23:24:29.787Z,13.49
2018-05-27T23:26:56.224Z,13.55
2018-05-27T23:29:22.601Z,13.49
2018-05-27T23:31:49.021Z,13.57
2018-05-27T23:34:15.587Z,13.42
2018-05-27T23:36:41.937Z,13.28
2018-05-27T23:39:08.392Z,13.24
2018-05-27T23:41:34.781Z,13.22
2018-05-27T23:44:01.253Z,13.19
2018-05-27T23:46:27.609Z,13.15
2018-05-27T23:48:53.974Z,13.15
2018-05-27T23:51:20.475Z,13.11
2018-05-27T23:53:46.866Z,13.05
2018-05-27T23:56:13.242Z,13.04
2018-05-27T23:58:39.605Z,13.02
